sensor_id;sensor_type;location;lat;lon;timestamp;temperature;humidity
17843;DHT22;69286;48.222;16.332;2023-05-17T00:00:29;13.30;99.90
17843;DHT22;69286;48.222;16.332;2023-05-17T00:02:56;13.20;99.90
17843;DHT22;69286;48.222;16.332;2023-05-17T00:05:23;13.20;99.90
17843;DHT22;69286;48.222;16.332;2023-05-17T00:07:50;13.20;99.90
17843;DHT22;69286;48.222;16.332;2023-05-17T00:10:17;13.20;99.90
17843;DHT22;69286;48.222;16.332;2023-05-17T00:12:45;13.20;99.90
17843;DHT22;69286;48.222;16.332;2023-05-17T00:15:12;13.20;99.90
17843;DHT22;69286;48.222;16.332;2023-05-17T00:17:40;13.20;99.90
17843;DHT22;69286;48.222;16.332;2023-05-17T00:20:07;13.20;99.90
17843;DHT22;69286;48.222;16.332;2023-05-17T00:22:34;13.20;99.90
17843;DHT22;69286;48.222;16.332;2023-05-17T00:25:02;13.20;99.90
17843;DHT22;69286;48.222;16.332;2023-05-17T00:27:28;13.20;99.90
17843;DHT22;69286;48.222;16.332;2023-05-17T00:29:57;13.20;99.90
17843;DHT22;69286;48.222;16.332;2023-05-17T00:32:24;13.10;99.90
17843;DHT22;69286;48.222;16.332;2023-05-17T00:34:51;13.10;99.90
17843;DHT22;69286;48.222;16.332;2023-05-17T00:37:17;13.10;99.90
17843;DHT22;69286;48.222;16.332;2023-05-17T00:39:44;13.10;99.90
17843;DHT22;69286;48.222;16.332;2023-05-17T00:42:11;13.10;99.90
17843;DHT22;69286;48.222;16.332;2023-05-17T00:44:38;13.10;99.90
17843;DHT22;69286;48.222;16.332;2023-05-17T00:47:07;13.10;99.90
17843;DHT22;69286;48.222;16.332;2023-05-17T00:49:34;13.10;99.90
17843;DHT22;69286;48.222;16.332;2023-05-17T00:52:01;13.10;99.90
17843;DHT22;69286;48.222;16.332;2023-05-17T00:54:28;13.10;99.90
17843;DHT22;69286;48.222;16.332;2023-05-17T00:56:56;13.10;99.90
17843;DHT22;69286;48.222;16.332;2023-05-17T00:59:25;13.10;99.90
17843;DHT22;69286;48.222;16.332;2023-05-17T01:01:53;13.10;99.90
17843;DHT22;69286;48.222;16.332;2023-05-17T01:04:21;13.10;99.90
17843;DHT22;69286;48.222;16.332;2023-05-17T01:06:48;13.10;99.90
17843;DHT22;69286;48.222;16.332;2023-05-17T01:09:16;13.10;99.90
17843;DHT22;69286;48.222;16.332;2023-05-17T01:11:51;13.00;99.90
17843;DHT22;69286;48.222;16.332;2023-05-17T01:14:31;13.00;99.90
17843;DHT22;69286;48.222;16.332;2023-05-17T01:17:03;13.00;99.90
17843;DHT22;69286;48.222;16.332;2023-05-17T01:19:56;13.00;99.90
17843;DHT22;69286;48.222;16.332;2023-05-17T01:22:31;13.00;99.90
17843;DHT22;69286;48.222;16.332;2023-05-17T01:28:00;12.90;99.90
17843;DHT22;69286;48.222;16.332;2023-05-17T01:30:29;12.90;99.90
17843;DHT22;69286;48.222;16.332;2023-05-17T01:32:58;12.80;99.90
17843;DHT22;69286;48.222;16.332;2023-05-17T01:35:26;12.80;99.90
17843;DHT22;69286;48.222;16.332;2023-05-17T01:37:53;12.80;99.90
17843;DHT22;69286;48.222;16.332;2023-05-17T01:40:21;12.80;99.90
17843;DHT22;69286;48.222;16.332;2023-05-17T01:42:52;12.80;99.90
17843;DHT22;69286;48.222;16.332;2023-05-17T01:45:25;12.80;99.90
17843;DHT22;69286;48.222;16.332;2023-05-17T01:48:03;12.80;99.90
17843;DHT22;69286;48.222;16.332;2023-05-17T01:50:35;12.80;99.90
17843;DHT22;69286;48.222;16.332;2023-05-17T01:53:07;12.80;99.90
17843;DHT22;69286;48.222;16.332;2023-05-17T01:55:42;12.80;99.90
17843;DHT22;69286;48.222;16.332;2023-05-17T01:58:11;12.80;99.90
17843;DHT22;69286;48.222;16.332;2023-05-17T02:00:43;12.70;99.90
17843;DHT22;69286;48.222;16.332;2023-05-17T02:03:12;12.70;99.90
17843;DHT22;69286;48.222;16.332;2023-05-17T02:05:42;12.70;99.90
17843;DHT22;69286;48.222;16.332;2023-05-17T02:08:09;12.70;99.90
17843;DHT22;69286;48.222;16.332;2023-05-17T02:10:36;12.70;99.90
17843;DHT22;69286;48.222;16.332;2023-05-17T02:13:03;12.70;99.90
17843;DHT22;69286;48.222;16.332;2023-05-17T02:15:30;12.70;99.90
17843;DHT22;69286;48.222;16.332;2023-05-17T02:17:59;12.70;99.90
17843;DHT22;69286;48.222;16.332;2023-05-17T02:20:26;12.60;99.90
17843;DHT22;69286;48.222;16.332;2023-05-17T02:22:53;12.70;99.90
17843;DHT22;69286;48.222;16.332;2023-05-17T02:25:20;12.60;99.90
17843;DHT22;69286;48.222;16.332;2023-05-17T02:27:47;12.60;99.90
17843;DHT22;69286;48.222;16.332;2023-05-17T02:30:13;12.60;99.90
17843;DHT22;69286;48.222;16.332;2023-05-17T02:32:41;12.60;99.90
17843;DHT22;69286;48.222;16.332;2023-05-17T02:35:10;12.60;99.90
17843;DHT22;69286;48.222;16.332;2023-05-17T02:37:37;12.60;99.90
17843;DHT22;69286;48.222;16.332;2023-05-17T02:40:05;12.50;99.90
17843;DHT22;69286;48.222;16.332;2023-05-17T02:42:35;12.50;99.90
17843;DHT22;69286;48.222;16.332;2023-05-17T02:45:03;12.50;99.90
17843;DHT22;69286;48.222;16.332;2023-05-17T02:47:30;12.50;99.90
17843;DHT22;69286;48.222;16.332;2023-05-17T02:49:57;12.40;99.90
17843;DHT22;69286;48.222;16.332;2023-05-17T02:52:25;12.40;99.90
17843;DHT22;69286;48.222;16.332;2023-05-17T02:54:52;12.40;99.90
17843;DHT22;69286;48.222;16.332;2023-05-17T02:57:19;12.30;99.90
17843;DHT22;69286;48.222;16.332;2023-05-17T02:59:46;12.40;99.90
17843;DHT22;69286;48.222;16.332;2023-05-17T03:02:13;12.40;99.90
17843;DHT22;69286;48.222;16.332;2023-05-17T03:04:40;12.40;99.90
17843;DHT22;69286;48.222;16.332;2023-05-17T03:07:07;12.30;99.90
17843;DHT22;69286;48.222;16.332;2023-05-17T03:09:35;12.30;99.90
17843;DHT22;69286;48.222;16.332;2023-05-17T03:12:02;12.30;99.90
17843;DHT22;69286;48.222;16.332;2023-05-17T03:14:29;12.20;99.90
17843;DHT22;69286;48.222;16.332;2023-05-17T03:16:56;12.20;99.90
17843;DHT22;69286;48.222;16.332;2023-05-17T03:19:23;12.20;99.90
17843;DHT22;69286;48.222;16.332;2023-05-17T03:21:50;12.20;99.90
17843;DHT22;69286;48.222;16.332;2023-05-17T03:24:17;12.20;99.90
17843;DHT22;69286;48.222;16.332;2023-05-17T03:26:45;12.20;99.90
17843;DHT22;69286;48.222;16.332;2023-05-17T03:29:12;12.20;99.90
17843;DHT22;69286;48.222;16.332;2023-05-17T03:31:39;12.10;99.90
17843;DHT22;69286;48.222;16.332;2023-05-17T03:34:06;12.10;99.90
17843;DHT22;69286;48.222;16.332;2023-05-17T03:36:34;12.10;99.90
17843;DHT22;69286;48.222;16.332;2023-05-17T03:39:00;12.10;99.90
17843;DHT22;69286;48.222;16.332;2023-05-17T03:41:28;12.10;99.90
17843;DHT22;69286;48.222;16.332;2023-05-17T03:43:56;12.10;99.90
17843;DHT22;69286;48.222;16.332;2023-05-17T03:46:23;12.10;99.90
17843;DHT22;69286;48.222;16.332;2023-05-17T03:48:50;12.00;99.90
17843;DHT22;69286;48.222;16.332;2023-05-17T03:51:17;12.00;99.90
17843;DHT22;69286;48.222;16.332;2023-05-17T03:53:44;12.00;99.90
17843;DHT22;69286;48.222;16.332;2023-05-17T03:56:11;12.00;99.90
17843;DHT22;69286;48.222;16.332;2023-05-17T03:58:38;11.90;99.90
17843;DHT22;69286;48.222;16.332;2023-05-17T04:01:06;11.90;99.90
17843;DHT22;69286;48.222;16.332;2023-05-17T04:03:33;11.90;99.90
17843;DHT22;69286;48.222;16.332;2023-05-17T04:06:02;11.90;99.90
17843;DHT22;69286;48.222;16.332;2023-05-17T04:08:50;11.90;99.90
17843;DHT22;69286;48.222;16.332;2023-05-17T04:11:18;11.90;99.90
17843;DHT22;69286;48.222;16.332;2023-05-17T04:13:48;11.90;99.90
17843;DHT22;69286;48.222;16.332;2023-05-17T04:16:16;11.80;99.90
17843;DHT22;69286;48.222;16.332;2023-05-17T04:18:43;11.80;99.90
17843;DHT22;69286;48.222;16.332;2023-05-17T04:21:10;11.70;99.90
17843;DHT22;69286;48.222;16.332;2023-05-17T04:23:38;11.70;99.90
17843;DHT22;69286;48.222;16.332;2023-05-17T04:26:05;11.70;99.90
17843;DHT22;69286;48.222;16.332;2023-05-17T04:28:31;11.70;99.90
17843;DHT22;69286;48.222;16.332;2023-05-17T04:30:59;11.60;99.90
17843;DHT22;69286;48.222;16.332;2023-05-17T04:33:28;11.60;99.90
17843;DHT22;69286;48.222;16.332;2023-05-17T04:35:55;11.60;99.90
17843;DHT22;69286;48.222;16.332;2023-05-17T04:38:22;11.60;99.90
17843;DHT22;69286;48.222;16.332;2023-05-17T04:40:49;11.60;99.90
17843;DHT22;69286;48.222;16.332;2023-05-17T04:43:16;11.60;99.90
17843;DHT22;69286;48.222;16.332;2023-05-17T04:45:43;11.50;99.90
17843;DHT22;69286;48.222;16.332;2023-05-17T04:48:10;11.50;99.90
17843;DHT22;69286;48.222;16.332;2023-05-17T04:50:38;11.50;99.90
17843;DHT22;69286;48.222;16.332;2023-05-17T04:53:06;11.50;99.90
17843;DHT22;69286;48.222;16.332;2023-05-17T04:55:33;11.50;99.90
17843;DHT22;69286;48.222;16.332;2023-05-17T04:58:00;11.50;99.90
17843;DHT22;69286;48.222;16.332;2023-05-17T05:00:28;11.40;99.90
17843;DHT22;69286;48.222;16.332;2023-05-17T05:02:55;11.40;99.90
17843;DHT22;69286;48.222;16.332;2023-05-17T05:05:22;11.40;99.90
17843;DHT22;69286;48.222;16.332;2023-05-17T05:07:51;11.40;99.90
17843;DHT22;69286;48.222;16.332;2023-05-17T05:10:18;11.40;99.90
17843;DHT22;69286;48.222;16.332;2023-05-17T05:12:45;11.40;99.90
17843;DHT22;69286;48.222;16.332;2023-05-17T05:15:12;11.40;99.90
17843;DHT22;69286;48.222;16.332;2023-05-17T05:17:39;11.30;99.90
17843;DHT22;69286;48.222;16.332;2023-05-17T05:20:07;11.30;99.90
17843;DHT22;69286;48.222;16.332;2023-05-17T05:22:35;11.30;99.90
17843;DHT22;69286;48.222;16.332;2023-05-17T05:25:03;11.30;99.90
17843;DHT22;69286;48.222;16.332;2023-05-17T05:27:30;11.30;99.90
17843;DHT22;69286;48.222;16.332;2023-05-17T05:29:57;11.30;99.90
17843;DHT22;69286;48.222;16.332;2023-05-17T05:32:24;11.30;99.90
17843;DHT22;69286;48.222;16.332;2023-05-17T05:34:51;11.30;99.90
17843;DHT22;69286;48.222;16.332;2023-05-17T05:37:18;11.20;99.90
17843;DHT22;69286;48.222;16.332;2023-05-17T05:39:45;11.30;99.90
17843;DHT22;69286;48.222;16.332;2023-05-17T05:42:13;11.30;99.90
17843;DHT22;69286;48.222;16.332;2023-05-17T05:44:41;11.30;99.90
17843;DHT22;69286;48.222;16.332;2023-05-17T05:47:07;11.30;99.90
17843;DHT22;69286;48.222;16.332;2023-05-17T05:49:34;11.20;99.90
17843;DHT22;69286;48.222;16.332;2023-05-17T05:52:01;11.20;99.90
17843;DHT22;69286;48.222;16.332;2023-05-17T05:54:28;11.20;99.90
17843;DHT22;69286;48.222;16.332;2023-05-17T05:56:55;11.10;99.90
17843;DHT22;69286;48.222;16.332;2023-05-17T05:59:24;11.20;99.90
17843;DHT22;69286;48.222;16.332;2023-05-17T06:01:50;11.20;99.90
17843;DHT22;69286;48.222;16.332;2023-05-17T06:04:18;11.20;99.90
17843;DHT22;69286;48.222;16.332;2023-05-17T06:06:45;11.20;99.90
17843;DHT22;69286;48.222;16.332;2023-05-17T06:09:12;11.20;99.90
17843;DHT22;69286;48.222;16.332;2023-05-17T06:11:38;11.20;99.90
17843;DHT22;69286;48.222;16.332;2023-05-17T06:14:05;11.20;99.90
17843;DHT22;69286;48.222;16.332;2023-05-17T06:16:34;11.20;99.90
17843;DHT22;69286;48.222;16.332;2023-05-17T06:19:01;11.20;99.90
17843;DHT22;69286;48.222;16.332;2023-05-17T06:21:28;11.20;99.90
17843;DHT22;69286;48.222;16.332;2023-05-17T06:23:56;11.30;99.90
17843;DHT22;69286;48.222;16.332;2023-05-17T06:26:23;11.10;99.90
17843;DHT22;69286;48.222;16.332;2023-05-17T06:28:50;11.20;99.90
17843;DHT22;69286;48.222;16.332;2023-05-17T06:31:17;11.20;99.90
17843;DHT22;69286;48.222;16.332;2023-05-17T06:33:45;11.10;99.90
17843;DHT22;69286;48.222;16.332;2023-05-17T06:36:13;11.20;99.90
17843;DHT22;69286;48.222;16.332;2023-05-17T06:38:40;11.10;99.90
17843;DHT22;69286;48.222;16.332;2023-05-17T06:41:07;11.10;99.90
17843;DHT22;69286;48.222;16.332;2023-05-17T06:43:33;11.10;99.90
17843;DHT22;69286;48.222;16.332;2023-05-17T06:46:00;11.10;99.90
17843;DHT22;69286;48.222;16.332;2023-05-17T06:48:27;11.10;99.90
17843;DHT22;69286;48.222;16.332;2023-05-17T06:50:56;11.10;99.90
17843;DHT22;69286;48.222;16.332;2023-05-17T06:53:23;11.20;99.90
17843;DHT22;69286;48.222;16.332;2023-05-17T06:55:51;11.20;99.90
17843;DHT22;69286;48.222;16.332;2023-05-17T06:58:18;11.30;99.90
17843;DHT22;69286;48.222;16.332;2023-05-17T07:00:46;11.30;99.90
17843;DHT22;69286;48.222;16.332;2023-05-17T07:03:13;11.30;99.90
17843;DHT22;69286;48.222;16.332;2023-05-17T07:05:40;11.30;99.90
17843;DHT22;69286;48.222;16.332;2023-05-17T07:08:08;11.30;99.90
17843;DHT22;69286;48.222;16.332;2023-05-17T07:10:35;11.30;99.90
17843;DHT22;69286;48.222;16.332;2023-05-17T07:13:02;11.30;99.90
17843;DHT22;69286;48.222;16.332;2023-05-17T07:15:29;11.30;99.90
17843;DHT22;69286;48.222;16.332;2023-05-17T07:17:56;11.30;99.90
17843;DHT22;69286;48.222;16.332;2023-05-17T07:20:23;11.30;99.90
17843;DHT22;69286;48.222;16.332;2023-05-17T07:22:50;11.20;99.90
17843;DHT22;69286;48.222;16.332;2023-05-17T07:25:19;11.20;99.90
17843;DHT22;69286;48.222;16.332;2023-05-17T07:27:46;11.30;99.90
17843;DHT22;69286;48.222;16.332;2023-05-17T07:30:13;11.30;99.90
17843;DHT22;69286;48.222;16.332;2023-05-17T07:32:40;11.20;99.90
17843;DHT22;69286;48.222;16.332;2023-05-17T07:35:07;11.20;99.90
17843;DHT22;69286;48.222;16.332;2023-05-17T07:37:34;11.30;99.90
17843;DHT22;69286;48.222;16.332;2023-05-17T07:40:01;11.30;99.90
17843;DHT22;69286;48.222;16.332;2023-05-17T07:45:29;11.30;99.90
17843;DHT22;69286;48.222;16.332;2023-05-17T07:47:56;11.30;99.90
17843;DHT22;69286;48.222;16.332;2023-05-17T07:50:26;11.30;99.90
17843;DHT22;69286;48.222;16.332;2023-05-17T07:53:00;11.30;99.90
17843;DHT22;69286;48.222;16.332;2023-05-17T07:55:28;11.20;99.90
17843;DHT22;69286;48.222;16.332;2023-05-17T07:57:57;11.20;99.90
17843;DHT22;69286;48.222;16.332;2023-05-17T08:00:25;11.30;99.90
17843;DHT22;69286;48.222;16.332;2023-05-17T08:02:56;11.20;99.90
17843;DHT22;69286;48.222;16.332;2023-05-17T08:05:25;11.20;99.90
17843;DHT22;69286;48.222;16.332;2023-05-17T08:08:06;11.30;99.90
17843;DHT22;69286;48.222;16.332;2023-05-17T08:10:36;11.20;99.90
17843;DHT22;69286;48.222;16.332;2023-05-17T08:13:05;11.30;99.90
17843;DHT22;69286;48.222;16.332;2023-05-17T08:15:34;11.30;99.90
17843;DHT22;69286;48.222;16.332;2023-05-17T08:18:04;11.30;99.90
17843;DHT22;69286;48.222;16.332;2023-05-17T08:20:34;11.30;99.90
17843;DHT22;69286;48.222;16.332;2023-05-17T08:23:04;11.50;99.90
17843;DHT22;69286;48.222;16.332;2023-05-17T08:25:32;11.50;99.90
17843;DHT22;69286;48.222;16.332;2023-05-17T08:27:59;11.60;99.90
17843;DHT22;69286;48.222;16.332;2023-05-17T08:30:25;11.70;99.90
17843;DHT22;69286;48.222;16.332;2023-05-17T08:32:52;11.80;99.90
17843;DHT22;69286;48.222;16.332;2023-05-17T08:35:22;11.80;99.90
17843;DHT22;69286;48.222;16.332;2023-05-17T08:37:50;11.90;99.90
17843;DHT22;69286;48.222;16.332;2023-05-17T08:40:20;12.00;99.90
17843;DHT22;69286;48.222;16.332;2023-05-17T08:42:48;12.10;99.90
17843;DHT22;69286;48.222;16.332;2023-05-17T08:45:18;12.10;99.90
17843;DHT22;69286;48.222;16.332;2023-05-17T08:47:48;12.20;99.90
17843;DHT22;69286;48.222;16.332;2023-05-17T08:50:22;12.20;99.90
17843;DHT22;69286;48.222;16.332;2023-05-17T08:52:53;12.30;99.90
17843;DHT22;69286;48.222;16.332;2023-05-17T08:55:23;12.30;99.90
17843;DHT22;69286;48.222;16.332;2023-05-17T08:57:54;12.40;99.90
17843;DHT22;69286;48.222;16.332;2023-05-17T09:00:26;12.50;99.90
17843;DHT22;69286;48.222;16.332;2023-05-17T09:02:57;12.50;99.90
17843;DHT22;69286;48.222;16.332;2023-05-17T09:05:30;12.50;99.90
17843;DHT22;69286;48.222;16.332;2023-05-17T09:07:58;12.50;99.90
17843;DHT22;69286;48.222;16.332;2023-05-17T09:10:27;12.50;99.90
17843;DHT22;69286;48.222;16.332;2023-05-17T09:12:57;12.40;99.90
17843;DHT22;69286;48.222;16.332;2023-05-17T09:15:26;12.40;99.90
17843;DHT22;69286;48.222;16.332;2023-05-17T09:17:56;12.40;99.90
17843;DHT22;69286;48.222;16.332;2023-05-17T09:20:28;12.40;99.90
17843;DHT22;69286;48.222;16.332;2023-05-17T09:22:59;12.40;99.90
17843;DHT22;69286;48.222;16.332;2023-05-17T09:25:28;12.40;99.90
17843;DHT22;69286;48.222;16.332;2023-05-17T09:28:00;12.30;99.90
17843;DHT22;69286;48.222;16.332;2023-05-17T09:30:27;12.30;99.90
17843;DHT22;69286;48.222;16.332;2023-05-17T09:32:54;12.30;99.90
17843;DHT22;69286;48.222;16.332;2023-05-17T09:35:27;12.30;99.90
17843;DHT22;69286;48.222;16.332;2023-05-17T09:38:03;12.30;99.90
17843;DHT22;69286;48.222;16.332;2023-05-17T09:40:31;12.20;99.90
17843;DHT22;69286;48.222;16.332;2023-05-17T09:42:58;12.20;99.90
17843;DHT22;69286;48.222;16.332;2023-05-17T09:45:25;12.20;99.90
17843;DHT22;69286;48.222;16.332;2023-05-17T09:47:52;12.20;99.90
17843;DHT22;69286;48.222;16.332;2023-05-17T09:50:20;12.20;99.90
17843;DHT22;69286;48.222;16.332;2023-05-17T09:52:49;12.10;99.90
17843;DHT22;69286;48.222;16.332;2023-05-17T09:55:16;12.10;99.90
17843;DHT22;69286;48.222;16.332;2023-05-17T09:57:43;12.10;99.90
17843;DHT22;69286;48.222;16.332;2023-05-17T10:00:12;12.10;99.90
17843;DHT22;69286;48.222;16.332;2023-05-17T10:02:39;12.10;99.90
17843;DHT22;69286;48.222;16.332;2023-05-17T10:05:10;12.00;99.90
17843;DHT22;69286;48.222;16.332;2023-05-17T10:07:37;12.00;99.90
17843;DHT22;69286;48.222;16.332;2023-05-17T10:10:06;12.00;99.90
17843;DHT22;69286;48.222;16.332;2023-05-17T10:12:35;12.00;99.90
17843;DHT22;69286;48.222;16.332;2023-05-17T10:15:04;11.90;99.90
17843;DHT22;69286;48.222;16.332;2023-05-17T10:17:32;11.90;99.90
17843;DHT22;69286;48.222;16.332;2023-05-17T10:20:00;11.80;99.90
17843;DHT22;69286;48.222;16.332;2023-05-17T10:22:31;11.80;99.90
17843;DHT22;69286;48.222;16.332;2023-05-17T10:24:59;11.70;99.90
17843;DHT22;69286;48.222;16.332;2023-05-17T10:27:29;11.70;99.90
17843;DHT22;69286;48.222;16.332;2023-05-17T10:29:57;11.60;99.90
17843;DHT22;69286;48.222;16.332;2023-05-17T10:32:26;11.60;99.90
17843;DHT22;69286;48.222;16.332;2023-05-17T10:34:54;11.60;99.90
17843;DHT22;69286;48.222;16.332;2023-05-17T10:37:22;11.60;99.90
17843;DHT22;69286;48.222;16.332;2023-05-17T10:39:50;11.70;99.90
17843;DHT22;69286;48.222;16.332;2023-05-17T10:42:20;11.70;99.90
17843;DHT22;69286;48.222;16.332;2023-05-17T10:44:49;11.60;99.90
17843;DHT22;69286;48.222;16.332;2023-05-17T10:47:19;11.60;99.90
17843;DHT22;69286;48.222;16.332;2023-05-17T10:49:46;11.70;99.90
17843;DHT22;69286;48.222;16.332;2023-05-17T10:52:17;11.60;99.90
17843;DHT22;69286;48.222;16.332;2023-05-17T10:54:47;11.60;99.90
17843;DHT22;69286;48.222;16.332;2023-05-17T10:57:21;11.60;99.90
17843;DHT22;69286;48.222;16.332;2023-05-17T11:00:00;11.60;99.90
17843;DHT22;69286;48.222;16.332;2023-05-17T11:02:30;11.50;99.90
17843;DHT22;69286;48.222;16.332;2023-05-17T11:04:57;11.50;99.90
17843;DHT22;69286;48.222;16.332;2023-05-17T11:07:26;11.60;99.90
17843;DHT22;69286;48.222;16.332;2023-05-17T11:10:00;11.60;99.90
17843;DHT22;69286;48.222;16.332;2023-05-17T11:12:32;11.60;99.90
17843;DHT22;69286;48.222;16.332;2023-05-17T11:15:05;11.70;99.90
17843;DHT22;69286;48.222;16.332;2023-05-17T11:17:35;11.70;99.90
17843;DHT22;69286;48.222;16.332;2023-05-17T11:20:07;11.70;99.90
17843;DHT22;69286;48.222;16.332;2023-05-17T11:22:39;11.60;99.90
17843;DHT22;69286;48.222;16.332;2023-05-17T11:25:11;11.60;99.90
17843;DHT22;69286;48.222;16.332;2023-05-17T11:27:44;11.70;99.90
17843;DHT22;69286;48.222;16.332;2023-05-17T11:30:22;11.60;99.90
17843;DHT22;69286;48.222;16.332;2023-05-17T11:32:51;11.60;99.90
17843;DHT22;69286;48.222;16.332;2023-05-17T11:35:25;11.50;99.90
17843;DHT22;69286;48.222;16.332;2023-05-17T11:37:53;11.50;99.90
17843;DHT22;69286;48.222;16.332;2023-05-17T11:40:26;11.60;99.90
17843;DHT22;69286;48.222;16.332;2023-05-17T11:43:09;11.60;99.90
17843;DHT22;69286;48.222;16.332;2023-05-17T11:45:46;11.60;99.90
17843;DHT22;69286;48.222;16.332;2023-05-17T11:48:16;11.60;99.90
17843;DHT22;69286;48.222;16.332;2023-05-17T11:50:45;11.60;99.90
17843;DHT22;69286;48.222;16.332;2023-05-17T11:53:13;11.60;99.90
17843;DHT22;69286;48.222;16.332;2023-05-17T11:55:41;11.50;99.90
17843;DHT22;69286;48.222;16.332;2023-05-17T11:58:09;11.60;99.90
17843;DHT22;69286;48.222;16.332;2023-05-17T12:00:36;11.60;99.90
17843;DHT22;69286;48.222;16.332;2023-05-17T12:03:20;11.60;99.90
17843;DHT22;69286;48.222;16.332;2023-05-17T12:05:49;11.70;99.90
17843;DHT22;69286;48.222;16.332;2023-05-17T12:08:17;11.70;99.90
17843;DHT22;69286;48.222;16.332;2023-05-17T12:10:46;11.70;99.90
17843;DHT22;69286;48.222;16.332;2023-05-17T12:13:14;11.70;99.90
17843;DHT22;69286;48.222;16.332;2023-05-17T12:15:44;11.70;99.90
17843;DHT22;69286;48.222;16.332;2023-05-17T12:18:11;11.70;99.90
17843;DHT22;69286;48.222;16.332;2023-05-17T12:20:53;11.70;99.90
17843;DHT22;69286;48.222;16.332;2023-05-17T12:23:31;11.70;99.90
17843;DHT22;69286;48.222;16.332;2023-05-17T12:26:06;11.70;99.90
17843;DHT22;69286;48.222;16.332;2023-05-17T12:28:34;11.70;99.90
17843;DHT22;69286;48.222;16.332;2023-05-17T12:31:02;11.70;99.90
17843;DHT22;69286;48.222;16.332;2023-05-17T12:33:31;11.60;99.90
17843;DHT22;69286;48.222;16.332;2023-05-17T12:36:01;11.60;99.90
17843;DHT22;69286;48.222;16.332;2023-05-17T12:38:30;11.70;99.90
17843;DHT22;69286;48.222;16.332;2023-05-17T12:41:01;11.70;99.90
17843;DHT22;69286;48.222;16.332;2023-05-17T12:43:29;11.70;99.90
17843;DHT22;69286;48.222;16.332;2023-05-17T12:46:01;11.70;99.90
17843;DHT22;69286;48.222;16.332;2023-05-17T12:48:29;11.70;99.90
17843;DHT22;69286;48.222;16.332;2023-05-17T12:50:56;11.70;99.90
17843;DHT22;69286;48.222;16.332;2023-05-17T12:53:33;11.70;99.90
17843;DHT22;69286;48.222;16.332;2023-05-17T12:56:01;11.80;99.90
17843;DHT22;69286;48.222;16.332;2023-05-17T12:58:27;11.80;99.90
17843;DHT22;69286;48.222;16.332;2023-05-17T13:00:58;11.80;99.90
17843;DHT22;69286;48.222;16.332;2023-05-17T13:03:26;11.80;99.90
17843;DHT22;69286;48.222;16.332;2023-05-17T13:06:03;11.80;99.90
17843;DHT22;69286;48.222;16.332;2023-05-17T13:08:32;11.80;99.90
17843;DHT22;69286;48.222;16.332;2023-05-17T13:11:10;11.80;99.90
17843;DHT22;69286;48.222;16.332;2023-05-17T13:13:37;11.80;99.90
17843;DHT22;69286;48.222;16.332;2023-05-17T13:16:04;11.80;99.90
17843;DHT22;69286;48.222;16.332;2023-05-17T13:18:46;11.90;99.90
17843;DHT22;69286;48.222;16.332;2023-05-17T13:21:13;11.90;99.90
17843;DHT22;69286;48.222;16.332;2023-05-17T13:23:45;11.80;99.90
17843;DHT22;69286;48.222;16.332;2023-05-17T13:26:12;11.80;99.90
17843;DHT22;69286;48.222;16.332;2023-05-17T13:28:39;11.70;99.90
17843;DHT22;69286;48.222;16.332;2023-05-17T13:31:06;11.70;99.90
17843;DHT22;69286;48.222;16.332;2023-05-17T13:33:33;11.70;99.90
17843;DHT22;69286;48.222;16.332;2023-05-17T13:36:00;11.60;99.90
17843;DHT22;69286;48.222;16.332;2023-05-17T13:38:27;11.60;99.90
17843;DHT22;69286;48.222;16.332;2023-05-17T13:40:55;11.60;99.90
17843;DHT22;69286;48.222;16.332;2023-05-17T13:43:22;11.70;99.90
17843;DHT22;69286;48.222;16.332;2023-05-17T13:45:49;11.60;99.90
17843;DHT22;69286;48.222;16.332;2023-05-17T13:48:21;11.60;99.90
17843;DHT22;69286;48.222;16.332;2023-05-17T13:50:48;11.60;99.90
17843;DHT22;69286;48.222;16.332;2023-05-17T13:53:15;11.60;99.90
17843;DHT22;69286;48.222;16.332;2023-05-17T13:55:42;11.50;99.90
17843;DHT22;69286;48.222;16.332;2023-05-17T13:58:11;11.50;99.90
17843;DHT22;69286;48.222;16.332;2023-05-17T14:00:38;11.50;99.90
17843;DHT22;69286;48.222;16.332;2023-05-17T14:03:07;11.40;99.90
17843;DHT22;69286;48.222;16.332;2023-05-17T14:05:34;11.40;99.90
17843;DHT22;69286;48.222;16.332;2023-05-17T14:08:01;11.50;99.90
17843;DHT22;69286;48.222;16.332;2023-05-17T14:10:28;11.50;99.90
17843;DHT22;69286;48.222;16.332;2023-05-17T14:12:55;11.50;99.90
17843;DHT22;69286;48.222;16.332;2023-05-17T14:15:23;11.50;99.90
17843;DHT22;69286;48.222;16.332;2023-05-17T14:17:52;11.50;99.90
17843;DHT22;69286;48.222;16.332;2023-05-17T14:20:19;11.50;99.90
17843;DHT22;69286;48.222;16.332;2023-05-17T14:22:46;11.50;99.90
17843;DHT22;69286;48.222;16.332;2023-05-17T14:25:13;11.50;99.90
17843;DHT22;69286;48.222;16.332;2023-05-17T14:27:40;11.50;99.90
17843;DHT22;69286;48.222;16.332;2023-05-17T14:30:07;11.50;99.90
17843;DHT22;69286;48.222;16.332;2023-05-17T14:32:36;11.50;99.90
17843;DHT22;69286;48.222;16.332;2023-05-17T14:35:04;11.50;99.90
17843;DHT22;69286;48.222;16.332;2023-05-17T14:37:32;11.50;99.90
17843;DHT22;69286;48.222;16.332;2023-05-17T14:39:59;11.50;99.90
17843;DHT22;69286;48.222;16.332;2023-05-17T14:42:26;11.50;99.90
17843;DHT22;69286;48.222;16.332;2023-05-17T14:44:53;11.50;99.90
17843;DHT22;69286;48.222;16.332;2023-05-17T14:47:20;11.50;99.90
17843;DHT22;69286;48.222;16.332;2023-05-17T14:49:48;11.50;99.90
17843;DHT22;69286;48.222;16.332;2023-05-17T14:52:15;11.40;99.90
17843;DHT22;69286;48.222;16.332;2023-05-17T14:54:42;11.40;99.90
17843;DHT22;69286;48.222;16.332;2023-05-17T14:57:09;11.40;99.90
17843;DHT22;69286;48.222;16.332;2023-05-17T14:59:37;11.40;99.90
17843;DHT22;69286;48.222;16.332;2023-05-17T15:02:05;11.40;99.90
17843;DHT22;69286;48.222;16.332;2023-05-17T15:04:32;11.40;99.90
17843;DHT22;69286;48.222;16.332;2023-05-17T15:07:00;11.40;99.90
17843;DHT22;69286;48.222;16.332;2023-05-17T15:09:27;11.40;99.90
17843;DHT22;69286;48.222;16.332;2023-05-17T15:11:55;11.40;99.90
17843;DHT22;69286;48.222;16.332;2023-05-17T15:14:22;11.40;99.90
17843;DHT22;69286;48.222;16.332;2023-05-17T15:16:51;11.50;99.90
17843;DHT22;69286;48.222;16.332;2023-05-17T15:19:18;11.50;99.90
17843;DHT22;69286;48.222;16.332;2023-05-17T15:21:45;11.50;99.90
17843;DHT22;69286;48.222;16.332;2023-05-17T15:24:13;11.50;99.90
17843;DHT22;69286;48.222;16.332;2023-05-17T15:26:41;11.50;99.90
17843;DHT22;69286;48.222;16.332;2023-05-17T15:29:09;11.50;99.90